sensor_id;sensor_type;location;lat;lon;timestamp;pressure;altitude;pressure_sealevel;temperature;humidity
70407;BME280;57821;52.202;0.154;2022-11-20T00:00:55;101200.00;;;6.58;100.00
70407;BME280;57821;52.202;0.154;2022-11-20T00:03:22;101196.47;;;6.54;100.00
70407;BME280;57821;52.202;0.154;2022-11-20T00:05:48;101195.56;;;6.52;99.66
70407;BME280;57821;52.202;0.154;2022-11-20T00:08:15;101184.25;;;6.44;99.66
70407;BME280;57821;52.202;0.154;2022-11-20T00:10:41;101183.31;;;6.41;99.96
70407;BME280;57821;52.202;0.154;2022-11-20T00:13:08;101182.53;;;6.43;99.46
70407;BME280;57821;52.202;0.154;2022-11-20T00:15:34;101189.50;;;6.49;100.00
70407;BME280;57821;52.202;0.154;2022-11-20T00:18:01;101194.63;;;6.47;100.00
70407;BME280;57821;52.202;0.154;2022-11-20T00:20:27;101187.78;;;6.49;100.00
70407;BME280;57821;52.202;0.154;2022-11-20T00:22:54;101192.91;;;6.48;100.00
70407;BME280;57821;52.202;0.154;2022-11-20T00:25:20;101179.13;;;6.44;99.66
70407;BME280;57821;52.202;0.154;2022-11-20T00:27:47;101187.75;;;6.46;99.98
70407;BME280;57821;52.202;0.154;2022-11-20T00:30:13;101192.00;;;6.44;100.00
70407;BME280;57821;52.202;0.154;2022-11-20T00:32:40;101187.69;;;6.43;99.95
70407;BME280;57821;52.202;0.154;2022-11-20T00:35:07;101170.34;;;6.36;100.00
70407;BME280;57821;52.202;0.154;2022-11-20T00:37:33;101165.16;;;6.33;100.00
70407;BME280;57821;52.202;0.154;2022-11-20T00:40:00;101162.63;;;6.36;100.00
70407;BME280;57821;52.202;0.154;2022-11-20T00:42:26;101165.22;;;6.36;100.00
70407;BME280;57821;52.202;0.154;2022-11-20T00:44:53;101151.38;;;6.31;100.00
70407;BME280;57821;52.202;0.154;2022-11-20T00:47:20;101173.88;;;6.41;100.00
70407;BME280;57821;52.202;0.154;2022-11-20T00:49:46;101158.31;;;6.35;100.00
70407;BME280;57821;52.202;0.154;2022-11-20T00:52:13;101153.22;;;6.38;100.00
70407;BME280;57821;52.202;0.154;2022-11-20T00:54:39;101154.06;;;6.37;100.00
70407;BME280;57821;52.202;0.154;2022-11-20T00:57:05;101144.59;;;6.36;100.00
70407;BME280;57821;52.202;0.154;2022-11-20T00:59:32;101143.84;;;6.42;100.00
70407;BME280;57821;52.202;0.154;2022-11-20T01:01:58;101132.66;;;6.40;100.00
70407;BME280;57821;52.202;0.154;2022-11-20T01:04:25;101140.44;;;6.43;100.00
70407;BME280;57821;52.202;0.154;2022-11-20T01:06:51;101143.00;;;6.43;100.00
70407;BME280;57821;52.202;0.154;2022-11-20T01:09:18;101134.41;;;6.42;100.00
70407;BME280;57821;52.202;0.154;2022-11-20T01:11:45;101130.09;;;6.40;100.00
70407;BME280;57821;52.202;0.154;2022-11-20T01:14:16;101138.81;;;6.48;100.00
70407;BME280;57821;52.202;0.154;2022-11-20T01:16:48;101128.41;;;6.42;100.00
70407;BME280;57821;52.202;0.154;2022-11-20T01:19:20;101131.91;;;6.45;100.00
70407;BME280;57821;52.202;0.154;2022-11-20T01:21:51;101122.44;;;6.44;100.00
70407;BME280;57821;52.202;0.154;2022-11-20T01:24:20;101113.88;;;6.45;100.00
70407;BME280;57821;52.202;0.154;2022-11-20T01:26:48;101112.16;;;6.44;100.00
70407;BME280;57821;52.202;0.154;2022-11-20T01:29:21;101096.66;;;6.43;100.00
70407;BME280;57821;52.202;0.154;2022-11-20T01:31:48;101092.34;;;6.40;100.00
70407;BME280;57821;52.202;0.154;2022-11-20T01:34:17;101101.84;;;6.44;100.00
70407;BME280;57821;52.202;0.154;2022-11-20T01:36:45;101093.16;;;6.39;100.00
70407;BME280;57821;52.202;0.154;2022-11-20T01:39:12;101098.44;;;6.45;100.00
70407;BME280;57821;52.202;0.154;2022-11-20T01:41:39;101103.59;;;6.45;100.00
70407;BME280;57821;52.202;0.154;2022-11-20T01:44:06;101086.31;;;6.41;100.00
70407;BME280;57821;52.202;0.154;2022-11-20T01:46:36;101083.78;;;6.43;100.00
70407;BME280;57821;52.202;0.154;2022-11-20T01:49:27;101082.91;;;6.42;100.00
70407;BME280;57821;52.202;0.154;2022-11-20T01:51:57;101081.28;;;6.47;100.00
70407;BME280;57821;52.202;0.154;2022-11-20T01:54:38;101086.44;;;6.47;100.00
70407;BME280;57821;52.202;0.154;2022-11-20T01:57:08;101073.53;;;6.47;100.00
70407;BME280;57821;52.202;0.154;2022-11-20T01:59:41;101062.28;;;6.42;100.00
70407;BME280;57821;52.202;0.154;2022-11-20T02:02:09;101070.94;;;6.44;100.00
70407;BME280;57821;52.202;0.154;2022-11-20T02:04:36;101058.00;;;6.43;100.00
70407;BME280;57821;52.202;0.154;2022-11-20T02:07:04;101064.03;;;6.43;100.00
70407;BME280;57821;52.202;0.154;2022-11-20T02:09:31;101058.88;;;6.43;100.00
70407;BME280;57821;52.202;0.154;2022-11-20T02:11:58;101052.81;;;6.41;100.00
70407;BME280;57821;52.202;0.154;2022-11-20T02:14:26;101051.13;;;6.42;100.00
70407;BME280;57821;52.202;0.154;2022-11-20T02:16:54;101047.78;;;6.46;100.00
70407;BME280;57821;52.202;0.154;2022-11-20T02:19:28;101041.75;;;6.45;100.00
70407;BME280;57821;52.202;0.154;2022-11-20T02:22:07;101038.25;;;6.40;100.00
70407;BME280;57821;52.202;0.154;2022-11-20T02:24:37;101047.78;;;6.47;100.00
70407;BME280;57821;52.202;0.154;2022-11-20T02:27:12;101036.66;;;6.48;100.00
70407;BME280;57821;52.202;0.154;2022-11-20T02:29:53;101038.38;;;6.49;100.00
70407;BME280;57821;52.202;0.154;2022-11-20T02:34:49;101029.81;;;6.50;100.00
70407;BME280;57821;52.202;0.154;2022-11-20T02:37:16;101014.28;;;6.47;100.00
70407;BME280;57821;52.202;0.154;2022-11-20T02:39:46;101022.13;;;6.53;100.00
70407;BME280;57821;52.202;0.154;2022-11-20T02:42:13;101016.97;;;6.53;100.00
70407;BME280;57821;52.202;0.154;2022-11-20T02:44:40;101009.25;;;6.53;100.00
70407;BME280;57821;52.202;0.154;2022-11-20T02:47:06;101002.34;;;6.52;100.00
70407;BME280;57821;52.202;0.154;2022-11-20T02:49:33;100997.28;;;6.55;100.00
70407;BME280;57821;52.202;0.154;2022-11-20T02:52:00;101002.50;;;6.60;100.00
70407;BME280;57821;52.202;0.154;2022-11-20T02:54:26;100995.63;;;6.60;100.00
70407;BME280;57821;52.202;0.154;2022-11-20T02:56:53;100986.19;;;6.61;100.00
70407;BME280;57821;52.202;0.154;2022-11-20T02:59:19;100981.88;;;6.60;100.00
70407;BME280;57821;52.202;0.154;2022-11-20T03:01:46;100984.53;;;6.65;100.00
70407;BME280;57821;52.202;0.154;2022-11-20T03:04:13;100975.94;;;6.64;100.00
70407;BME280;57821;52.202;0.154;2022-11-20T03:06:39;100957.88;;;6.63;100.00
70407;BME280;57821;52.202;0.154;2022-11-20T03:09:06;100960.47;;;6.64;100.00
70407;BME280;57821;52.202;0.154;2022-11-20T03:11:32;100961.44;;;6.71;100.00
70407;BME280;57821;52.202;0.154;2022-11-20T03:14:02;100964.88;;;6.70;100.00
70407;BME280;57821;52.202;0.154;2022-11-20T03:16:30;100964.94;;;6.76;100.00
70407;BME280;57821;52.202;0.154;2022-11-20T03:18:57;100952.00;;;6.71;100.00
70407;BME280;57821;52.202;0.154;2022-11-20T03:21:24;100948.63;;;6.77;100.00
70407;BME280;57821;52.202;0.154;2022-11-20T03:23:52;100927.97;;;6.72;100.00
70407;BME280;57821;52.202;0.154;2022-11-20T03:26:23;100943.50;;;6.78;100.00
70407;BME280;57821;52.202;0.154;2022-11-20T03:28:53;100935.81;;;6.80;100.00
70407;BME280;57821;52.202;0.154;2022-11-20T03:31:26;100934.97;;;6.81;100.00
70407;BME280;57821;52.202;0.154;2022-11-20T03:33:53;100924.56;;;6.76;100.00
70407;BME280;57821;52.202;0.154;2022-11-20T03:36:20;100918.63;;;6.79;100.00
70407;BME280;57821;52.202;0.154;2022-11-20T03:38:47;100910.00;;;6.78;100.00
70407;BME280;57821;52.202;0.154;2022-11-20T03:41:19;100912.63;;;6.80;100.00
70407;BME280;57821;52.202;0.154;2022-11-20T03:43:48;100918.63;;;6.82;100.00
70407;BME280;57821;52.202;0.154;2022-11-20T03:46:15;100918.69;;;6.85;100.00
70407;BME280;57821;52.202;0.154;2022-11-20T03:48:41;100913.53;;;6.85;100.00
70407;BME280;57821;52.202;0.154;2022-11-20T03:53:46;100911.88;;;6.87;100.00
70407;BME280;57821;52.202;0.154;2022-11-20T03:56:15;100901.56;;;6.87;100.00
70407;BME280;57821;52.202;0.154;2022-11-20T03:58:41;100898.03;;;6.82;100.00
70407;BME280;57821;52.202;0.154;2022-11-20T04:01:10;100896.41;;;6.88;100.00
70407;BME280;57821;52.202;0.154;2022-11-20T04:03:38;100900.69;;;6.86;100.00
70407;BME280;57821;52.202;0.154;2022-11-20T04:06:11;100904.13;;;6.87;100.00
70407;BME280;57821;52.202;0.154;2022-11-20T04:08:38;100897.22;;;6.87;100.00
70407;BME280;57821;52.202;0.154;2022-11-20T04:11:12;100906.72;;;6.87;100.00
70407;BME280;57821;52.202;0.154;2022-11-20T04:13:40;100904.13;;;6.87;100.00
70407;BME280;57821;52.202;0.154;2022-11-20T04:16:08;100895.50;;;6.85;100.00
70407;BME280;57821;52.202;0.154;2022-11-20T04:18:35;100886.03;;;6.84;100.00
70407;BME280;57821;52.202;0.154;2022-11-20T04:21:03;100892.09;;;6.89;100.00
70407;BME280;57821;52.202;0.154;2022-11-20T04:23:30;100889.50;;;6.87;100.00
70407;BME280;57821;52.202;0.154;2022-11-20T04:28:29;100868.06;;;6.87;100.00
70407;BME280;57821;52.202;0.154;2022-11-20T04:31:08;100863.72;;;6.86;100.00
70407;BME280;57821;52.202;0.154;2022-11-20T04:33:36;100865.47;;;6.87;100.00
70407;BME280;57821;52.202;0.154;2022-11-20T04:36:05;100858.59;;;6.86;100.00
70407;BME280;57821;52.202;0.154;2022-11-20T04:38:32;100852.56;;;6.85;100.00
70407;BME280;57821;52.202;0.154;2022-11-20T04:41:00;100850.81;;;6.84;100.00
70407;BME280;57821;52.202;0.154;2022-11-20T04:43:27;100834.47;;;6.81;100.00
70407;BME280;57821;52.202;0.154;2022-11-20T04:45:54;100845.63;;;6.83;100.00
70407;BME280;57821;52.202;0.154;2022-11-20T04:48:21;100839.56;;;6.78;100.00
70407;BME280;57821;52.202;0.154;2022-11-20T04:50:48;100836.97;;;6.76;100.00
70407;BME280;57821;52.202;0.154;2022-11-20T04:53:15;100827.44;;;6.71;100.00
70407;BME280;57821;52.202;0.154;2022-11-20T04:55:41;100825.72;;;6.70;100.00
70407;BME280;57821;52.202;0.154;2022-11-20T04:58:08;100833.50;;;6.74;100.00
70407;BME280;57821;52.202;0.154;2022-11-20T05:00:34;100818.84;;;6.70;100.00
70407;BME280;57821;52.202;0.154;2022-11-20T05:03:01;100817.97;;;6.68;100.00
70407;BME280;57821;52.202;0.154;2022-11-20T05:05:27;100818.84;;;6.69;100.00
70407;BME280;57821;52.202;0.154;2022-11-20T05:07:57;100814.53;;;6.68;100.00
70407;BME280;57821;52.202;0.154;2022-11-20T05:10:25;100813.69;;;6.70;100.00
70407;BME280;57821;52.202;0.154;2022-11-20T05:12:52;100796.41;;;6.62;100.00
70407;BME280;57821;52.202;0.154;2022-11-20T05:15:19;100809.34;;;6.66;100.00
70407;BME280;57821;52.202;0.154;2022-11-20T05:17:52;100798.16;;;6.63;100.00
70407;BME280;57821;52.202;0.154;2022-11-20T05:20:20;100799.00;;;6.65;100.00
70407;BME280;57821;52.202;0.154;2022-11-20T05:22:46;100790.41;;;6.64;100.00
70407;BME280;57821;52.202;0.154;2022-11-20T05:25:13;100768.00;;;6.58;100.00
70407;BME280;57821;52.202;0.154;2022-11-20T05:27:39;100765.50;;;6.62;100.00
70407;BME280;57821;52.202;0.154;2022-11-20T05:30:06;100751.72;;;6.59;100.00
70407;BME280;57821;52.202;0.154;2022-11-20T05:32:33;100759.44;;;6.58;100.00
70407;BME280;57821;52.202;0.154;2022-11-20T05:34:59;100762.06;;;6.63;100.00
70407;BME280;57821;52.202;0.154;2022-11-20T05:37:26;100742.25;;;6.58;100.00
70407;BME280;57821;52.202;0.154;2022-11-20T05:39:52;100746.63;;;6.63;100.00
70407;BME280;57821;52.202;0.154;2022-11-20T05:42:19;100744.91;;;6.63;100.00
70407;BME280;57821;52.202;0.154;2022-11-20T05:44:45;100737.19;;;6.65;100.00
70407;BME280;57821;52.202;0.154;2022-11-20T05:47:12;100734.56;;;6.62;100.00
70407;BME280;57821;52.202;0.154;2022-11-20T05:49:38;100732.00;;;6.62;100.00
70407;BME280;57821;52.202;0.154;2022-11-20T05:52:05;100739.72;;;6.62;100.00
70407;BME280;57821;52.202;0.154;2022-11-20T05:54:31;100729.38;;;6.58;100.00
70407;BME280;57821;52.202;0.154;2022-11-20T05:56:58;100727.69;;;6.60;100.00
70407;BME280;57821;52.202;0.154;2022-11-20T05:59:24;100719.97;;;6.60;100.00
70407;BME280;57821;52.202;0.154;2022-11-20T06:01:51;100719.13;;;6.62;100.00
70407;BME280;57821;52.202;0.154;2022-11-20T06:04:17;100723.44;;;6.66;100.00
70407;BME280;57821;52.202;0.154;2022-11-20T06:06:44;100713.97;;;6.62;100.00
70407;BME280;57821;52.202;0.154;2022-11-20T06:09:10;100719.13;;;6.65;100.00
70407;BME280;57821;52.202;0.154;2022-11-20T06:11:37;100713.09;;;6.61;100.00
70407;BME280;57821;52.202;0.154;2022-11-20T06:14:03;100716.56;;;6.63;100.00
70407;BME280;57821;52.202;0.154;2022-11-20T06:16:30;100701.13;;;6.63;100.00
70407;BME280;57821;52.202;0.154;2022-11-20T06:18:56;100699.38;;;6.62;100.00
70407;BME280;57821;52.202;0.154;2022-11-20T06:21:23;100704.59;;;6.68;100.00
70407;BME280;57821;52.202;0.154;2022-11-20T06:23:51;100689.94;;;6.63;100.00
70407;BME280;57821;52.202;0.154;2022-11-20T06:26:20;100705.47;;;6.70;100.00
70407;BME280;57821;52.202;0.154;2022-11-20T06:28:47;100697.72;;;6.70;100.00
70407;BME280;57821;52.202;0.154;2022-11-20T06:31:16;100702.91;;;6.72;100.00
70407;BME280;57821;52.202;0.154;2022-11-20T06:33:43;100688.28;;;6.68;100.00
70407;BME280;57821;52.202;0.154;2022-11-20T06:36:12;100695.22;;;6.76;100.00
70407;BME280;57821;52.202;0.154;2022-11-20T06:38:39;100695.25;;;6.78;100.00
70407;BME280;57821;52.202;0.154;2022-11-20T06:41:08;100679.72;;;6.72;100.00
70407;BME280;57821;52.202;0.154;2022-11-20T06:43:36;100684.94;;;6.78;100.00
70407;BME280;57821;52.202;0.154;2022-11-20T06:46:03;100683.19;;;6.77;100.00
70407;BME280;57821;52.202;0.154;2022-11-20T06:48:30;100690.06;;;6.75;100.00
70407;BME280;57821;52.202;0.154;2022-11-20T06:50:56;100679.78;;;6.78;100.00
70407;BME280;57821;52.202;0.154;2022-11-20T06:53:23;100688.44;;;6.83;100.00
70407;BME280;57821;52.202;0.154;2022-11-20T06:55:51;100687.59;;;6.84;100.00
70407;BME280;57821;52.202;0.154;2022-11-20T06:58:18;100683.28;;;6.83;100.00
70407;BME280;57821;52.202;0.154;2022-11-20T07:00:44;100684.19;;;6.86;100.00
70407;BME280;57821;52.202;0.154;2022-11-20T07:03:11;100679.88;;;6.85;100.00
70407;BME280;57821;52.202;0.154;2022-11-20T07:05:38;100673.03;;;6.90;100.00
70407;BME280;57821;52.202;0.154;2022-11-20T07:08:04;100678.22;;;6.92;100.00
70407;BME280;57821;52.202;0.154;2022-11-20T07:10:31;100645.50;;;6.88;100.00
70407;BME280;57821;52.202;0.154;2022-11-20T07:12:58;100661.91;;;6.94;100.00
70407;BME280;57821;52.202;0.154;2022-11-20T07:15:25;100654.19;;;6.93;100.00
70407;BME280;57821;52.202;0.154;2022-11-20T07:17:52;100655.94;;;6.97;100.00
70407;BME280;57821;52.202;0.154;2022-11-20T07:20:19;100654.22;;;6.99;100.00
70407;BME280;57821;52.202;0.154;2022-11-20T07:22:45;100663.69;;;7.00;100.00
70407;BME280;57821;52.202;0.154;2022-11-20T07:25:12;100656.81;;;7.00;100.00
70407;BME280;57821;52.202;0.154;2022-11-20T07:27:38;100652.56;;;7.04;100.00
70407;BME280;57821;52.202;0.154;2022-11-20T07:30:05;100653.44;;;7.05;100.00
70407;BME280;57821;52.202;0.154;2022-11-20T07:32:32;100649.09;;;7.05;100.00
70407;BME280;57821;52.202;0.154;2022-11-20T07:34:58;100656.88;;;7.07;100.00
70407;BME280;57821;52.202;0.154;2022-11-20T07:37:25;100650.84;;;7.05;100.00
70407;BME280;57821;52.202;0.154;2022-11-20T07:39:51;100658.59;;;7.05;100.00
70407;BME280;57821;52.202;0.154;2022-11-20T07:42:18;100659.47;;;7.11;100.00
70407;BME280;57821;52.202;0.154;2022-11-20T07:44:44;100659.47;;;7.08;100.00
70407;BME280;57821;52.202;0.154;2022-11-20T07:47:11;100656.91;;;7.11;100.00
70407;BME280;57821;52.202;0.154;2022-11-20T07:49:37;100656.09;;;7.15;100.00
70407;BME280;57821;52.202;0.154;2022-11-20T07:52:04;100656.09;;;7.15;100.00
70407;BME280;57821;52.202;0.154;2022-11-20T07:54:31;100661.25;;;7.18;100.00
70407;BME280;57821;52.202;0.154;2022-11-20T07:56:57;100663.00;;;7.22;100.00
70407;BME280;57821;52.202;0.154;2022-11-20T07:59:24;100665.59;;;7.24;100.00
70407;BME280;57821;52.202;0.154;2022-11-20T08:01:50;100664.75;;;7.25;100.00
70407;BME280;57821;52.202;0.154;2022-11-20T08:04:17;100659.59;;;7.23;100.00
70407;BME280;57821;52.202;0.154;2022-11-20T08:06:43;100653.59;;;7.26;100.00
70407;BME280;57821;52.202;0.154;2022-11-20T08:09:10;100668.25;;;7.31;100.00
70407;BME280;57821;52.202;0.154;2022-11-20T08:11:37;100669.13;;;7.35;100.00
70407;BME280;57821;52.202;0.154;2022-11-20T08:14:03;100667.44;;;7.35;100.00
70407;BME280;57821;52.202;0.154;2022-11-20T08:16:29;100667.44;;;7.35;100.00
70407;BME280;57821;52.202;0.154;2022-11-20T08:18:56;100679.53;;;7.39;100.00
70407;BME280;57821;52.202;0.154;2022-11-20T08:21:22;100682.09;;;7.42;100.00
70407;BME280;57821;52.202;0.154;2022-11-20T08:23:49;100688.13;;;7.46;100.00
70407;BME280;57821;52.202;0.154;2022-11-20T08:26:15;100671.78;;;7.46;100.00
70407;BME280;57821;52.202;0.154;2022-11-20T08:28:42;100665.75;;;7.42;100.00
70407;BME280;57821;52.202;0.154;2022-11-20T08:31:09;100678.78;;;7.56;100.00
70407;BME280;57821;52.202;0.154;2022-11-20T08:33:36;100683.91;;;7.53;100.00
70407;BME280;57821;52.202;0.154;2022-11-20T08:36:03;100685.69;;;7.60;100.00
70407;BME280;57821;52.202;0.154;2022-11-20T08:38:31;100690.88;;;7.66;100.00
70407;BME280;57821;52.202;0.154;2022-11-20T08:41:02;100689.16;;;7.69;100.00
70407;BME280;57821;52.202;0.154;2022-11-20T08:43:29;100687.47;;;7.70;100.00
70407;BME280;57821;52.202;0.154;2022-11-20T08:45:56;100684.00;;;7.69;100.00
70407;BME280;57821;52.202;0.154;2022-11-20T08:48:23;100686.66;;;7.77;100.00
70407;BME280;57821;52.202;0.154;2022-11-20T08:50:50;100678.03;;;7.72;100.00
70407;BME280;57821;52.202;0.154;2022-11-20T08:53:16;100688.41;;;7.79;100.00
70407;BME280;57821;52.202;0.154;2022-11-20T08:55:42;100689.28;;;7.83;100.00
70407;BME280;57821;52.202;0.154;2022-11-20T08:58:09;100685.88;;;7.90;100.00
70407;BME280;57821;52.202;0.154;2022-11-20T09:00:36;100690.22;;;7.99;100.00
70407;BME280;57821;52.202;0.154;2022-11-20T09:03:02;100690.25;;;8.05;100.00
70407;BME280;57821;52.202;0.154;2022-11-20T09:05:29;100677.38;;;8.11;100.00
70407;BME280;57821;52.202;0.154;2022-11-20T09:07:56;100675.69;;;8.16;100.00
70407;BME280;57821;52.202;0.154;2022-11-20T09:10:23;100675.75;;;8.27;100.00
70407;BME280;57821;52.202;0.154;2022-11-20T09:12:51;100675.81;;;8.31;100.00
70407;BME280;57821;52.202;0.154;2022-11-20T09:15:19;100667.19;;;8.34;100.00
70407;BME280;57821;52.202;0.154;2022-11-20T09:17:58;100674.13;;;8.47;100.00
70407;BME280;57821;52.202;0.154;2022-11-20T09:20:26;100663.81;;;8.54;100.00
70407;BME280;57821;52.202;0.154;2022-11-20T09:22:53;100661.28;;;8.73;100.00
70407;BME280;57821;52.202;0.154;2022-11-20T09:25:20;100668.22;;;8.89;100.00
70407;BME280;57821;52.202;0.154;2022-11-20T09:27:47;100674.25;;;9.04;100.00
70407;BME280;57821;52.202;0.154;2022-11-20T09:30:15;100674.28;;;9.23;100.00
70407;BME280;57821;52.202;0.154;2022-11-20T09:32:42;100669.13;;;9.35;100.00
70407;BME280;57821;52.202;0.154;2022-11-20T09:35:09;100663.94;;;9.47;100.00
70407;BME280;57821;52.202;0.154;2022-11-20T09:37:36;100665.66;;;9.48;100.00
70407;BME280;57821;52.202;0.154;2022-11-20T09:40:03;100674.28;;;9.47;100.00
70407;BME280;57821;52.202;0.154;2022-11-20T09:42:36;100670.84;;;9.42;98.53
70407;BME280;57821;52.202;0.154;2022-11-20T09:51:05;100677.72;;;9.28;99.86
70407;BME280;57821;52.202;0.154;2022-11-20T09:56:03;100670.81;;;9.33;99.52
70407;BME280;57821;52.202;0.154;2022-11-20T09:58:34;100667.41;;;9.43;100.00
70407;BME280;57821;52.202;0.154;2022-11-20T10:01:12;100681.16;;;9.63;100.00
70407;BME280;57821;52.202;0.154;2022-11-20T10:03:58;100665.63;;;9.81;100.00
70407;BME280;57821;52.202;0.154;2022-11-20T10:06:41;100662.13;;;9.95;100.00
70407;BME280;57821;52.202;0.154;2022-11-20T10:11:51;100672.44;;;10.13;100.00
70407;BME280;57821;52.202;0.154;2022-11-20T10:14:26;100671.56;;;10.29;100.00
70407;BME280;57821;52.202;0.154;2022-11-20T10:17:12;100665.47;;;10.35;99.47
70407;BME280;57821;52.202;0.154;2022-11-20T10:20:23;100669.69;;;10.55;100.00
70407;BME280;57821;52.202;0.154;2022-11-20T10:23:39;100667.00;;;10.74;99.29
70407;BME280;57821;52.202;0.154;2022-11-20T10:28:40;100671.25;;;10.88;97.94
70407;BME280;57821;52.202;0.154;2022-11-20T10:31:39;100670.34;;;10.94;97.81
70407;BME280;57821;52.202;0.154;2022-11-20T10:34:21;100677.28;;;10.92;96.52
70407;BME280;57821;52.202;0.154;2022-11-20T10:36:58;100672.09;;;10.95;98.04
70407;BME280;57821;52.202;0.154;2022-11-20T10:39:37;100667.69;;;11.04;98.41
70407;BME280;57821;52.202;0.154;2022-11-20T10:42:16;100658.97;;;11.13;97.31
70407;BME280;57821;52.202;0.154;2022-11-20T10:44:51;100656.22;;;11.31;96.10
70407;BME280;57821;52.202;0.154;2022-11-20T10:47:22;100653.56;;;11.40;95.83
70407;BME280;57821;52.202;0.154;2022-11-20T10:49:52;100645.72;;;11.46;95.41
70407;BME280;57821;52.202;0.154;2022-11-20T10:58:17;100641.41;;;11.44;94.99
70407;BME280;57821;52.202;0.154;2022-11-20T11:00:48;100635.41;;;11.39;94.11
70407;BME280;57821;52.202;0.154;2022-11-20T11:03:27;100638.03;;;11.33;92.92
70407;BME280;57821;52.202;0.154;2022-11-20T11:08:28;100630.41;;;11.15;93.56
70407;BME280;57821;52.202;0.154;2022-11-20T11:11:00;100640.84;;;11.10;92.44
70407;BME280;57821;52.202;0.154;2022-11-20T11:13:30;100641.75;;;11.04;93.40
70407;BME280;57821;52.202;0.154;2022-11-20T11:15:57;100639.16;;;11.04;93.82
70407;BME280;57821;52.202;0.154;2022-11-20T11:18:32;100632.22;;;11.02;94.05
70407;BME280;57821;52.202;0.154;2022-11-20T11:21:00;100627.09;;;10.96;93.63
70407;BME280;57821;52.202;0.154;2022-11-20T11:23:40;100634.88;;;10.96;94.00
70407;BME280;57821;52.202;0.154;2022-11-20T11:26:22;100639.25;;;10.89;93.66
70407;BME280;57821;52.202;0.154;2022-11-20T11:29:16;100634.13;;;10.82;94.33
70407;BME280;57821;52.202;0.154;2022-11-20T11:31:44;100616.03;;;10.69;92.84
70407;BME280;57821;52.202;0.154;2022-11-20T11:36:39;100636.81;;;10.65;92.15
70407;BME280;57821;52.202;0.154;2022-11-20T11:39:11;100635.97;;;10.61;93.82
70407;BME280;57821;52.202;0.154;2022-11-20T11:41:40;100632.56;;;10.53;92.87
70407;BME280;57821;52.202;0.154;2022-11-20T11:44:29;100633.47;;;10.48;94.02
70407;BME280;57821;52.202;0.154;2022-11-20T11:46:57;100643.81;;;10.49;93.43
70407;BME280;57821;52.202;0.154;2022-11-20T11:49:24;100641.25;;;10.46;93.53
70407;BME280;57821;52.202;0.154;2022-11-20T11:57:09;100629.19;;;10.41;92.98
70407;BME280;57821;52.202;0.154;2022-11-20T12:02:27;100631.75;;;10.39;94.08
70407;BME280;57821;52.202;0.154;2022-11-20T12:04:59;100625.72;;;10.39;93.07
70407;BME280;57821;52.202;0.154;2022-11-20T12:15:44;100628.34;;;10.36;93.44
70407;BME280;57821;52.202;0.154;2022-11-20T12:18:20;100633.53;;;10.36;93.83
70407;BME280;57821;52.202;0.154;2022-11-20T12:24:01;100624.88;;;10.34;93.86
70407;BME280;57821;52.202;0.154;2022-11-20T12:29:28;100637.75;;;10.50;93.75
70407;BME280;57821;52.202;0.154;2022-11-20T12:43:23;100635.81;;;10.86;92.31
70407;BME280;57821;52.202;0.154;2022-11-20T12:57:13;100616.31;;;11.44;88.13
70407;BME280;57821;52.202;0.154;2022-11-20T13:00:02;100624.91;;;11.49;90.93
70407;BME280;57821;52.202;0.154;2022-11-20T13:08:07;100624.09;;;11.44;90.60
70407;BME280;57821;52.202;0.154;2022-11-20T13:13:48;100638.00;;;11.39;88.55
70407;BME280;57821;52.202;0.154;2022-11-20T13:16:38;100634.53;;;11.38;89.97
70407;BME280;57821;52.202;0.154;2022-11-20T13:19:11;100626.78;;;11.35;89.37
70407;BME280;57821;52.202;0.154;2022-11-20T13:21:41;100640.59;;;11.40;88.13
70407;BME280;57821;52.202;0.154;2022-11-20T13:24:28;100633.72;;;11.33;88.07
70407;BME280;57821;52.202;0.154;2022-11-20T13:29:36;100636.28;;;11.36;86.77
70407;BME280;57821;52.202;0.154;2022-11-20T13:32:14;100637.13;;;11.38;86.66
70407;BME280;57821;52.202;0.154;2022-11-20T13:35:03;100640.59;;;11.40;89.21
70407;BME280;57821;52.202;0.154;2022-11-20T13:37:36;100656.06;;;11.49;88.06
70407;BME280;57821;52.202;0.154;2022-11-20T13:42:46;100657.75;;;11.58;87.91
70407;BME280;57821;52.202;0.154;2022-11-20T13:45:28;100657.69;;;11.60;87.56
70407;BME280;57821;52.202;0.154;2022-11-20T13:47:57;100654.16;;;11.67;87.03
70407;BME280;57821;52.202;0.154;2022-11-20T13:53:20;100638.56;;;11.70;86.91
70407;BME280;57821;52.202;0.154;2022-11-20T14:01:20;100647.25;;;11.66;84.87
70407;BME280;57821;52.202;0.154;2022-11-20T14:03:48;100655.09;;;11.63;84.88
70407;BME280;57821;52.202;0.154;2022-11-20T14:06:39;100653.41;;;11.57;83.19
70407;BME280;57821;52.202;0.154;2022-11-20T14:09:13;100655.22;;;11.49;84.21
70407;BME280;57821;52.202;0.154;2022-11-20T14:11:50;100661.31;;;11.43;83.88
70407;BME280;57821;52.202;0.154;2022-11-20T14:14:18;100660.50;;;11.41;85.02
70407;BME280;57821;52.202;0.154;2022-11-20T14:16:47;100667.38;;;11.44;85.04
70407;BME280;57821;52.202;0.154;2022-11-20T14:21:53;100655.34;;;11.32;83.52
70407;BME280;57821;52.202;0.154;2022-11-20T14:24:22;100661.41;;;11.31;84.19
70407;BME280;57821;52.202;0.154;2022-11-20T14:26:50;100665.78;;;11.26;84.08
70407;BME280;57821;52.202;0.154;2022-11-20T14:29:26;100659.88;;;11.09;84.42
70407;BME280;57821;52.202;0.154;2022-11-20T14:31:54;100665.06;;;11.09;84.64
70407;BME280;57821;52.202;0.154;2022-11-20T14:34:27;100653.94;;;10.95;84.25
70407;BME280;57821;52.202;0.154;2022-11-20T14:37:00;100655.69;;;10.87;83.05
70407;BME280;57821;52.202;0.154;2022-11-20T14:39:33;100654.03;;;10.74;84.30
70407;BME280;57821;52.202;0.154;2022-11-20T14:42:01;100636.00;;;10.58;83.98
70407;BME280;57821;52.202;0.154;2022-11-20T14:44:31;100636.84;;;10.56;83.82